Time;durP1;ratioP1;P1;durP2;ratioP2;P2;SDS_P1;SDS_P2;PMS_P1;PMS_P2;Temp;Humidity;BMP_temperature;BMP_pressure;BME280_temperature;BME280_humidity;BME280_pressure;Samples;Min_cycle;Max_cycle;Signal;HPM_P1;HPM_P2
2021/12/24 00:00:00;;;;;;;45.38;18.35;;;;;;;-2.49;nan;95397.13;6123483;23;20032;-80
2021/12/24 00:02:26;;;;;;;38.20;18.05;;;;;;;-2.93;nan;95338.44;6098304;23;20006;-78
2021/12/24 00:04:51;;;;;;;35.40;17.67;;;;;;;-1.79;nan;95497.59;6098991;23;20065;-79
2021/12/24 00:07:17;;;;;;;48.20;18.52;;;;;;;-2.47;nan;95382.16;6097851;23;20095;-79
2021/12/24 00:09:42;;;;;;;42.75;18.73;;;;;;;-2.02;nan;95451.06;6098320;23;20006;-79
2021/12/24 00:12:15;;;;;;;43.58;19.70;;;;;;;-1.77;nan;95495.63;6121836;23;20010;-79
2021/12/24 00:14:45;;;;;;;43.45;19.70;;;;;;;-2.72;nan;95343.59;6124968;23;20021;-79
2021/12/24 00:17:14;;;;;;;46.83;19.08;;;;;;;-2.72;nan;95346.22;6097958;23;20013;-79
2021/12/24 00:22:41;;;;;;;51.67;21.55;;;;;;;-2.16;nan;95405.97;6123868;23;20036;-80
2021/12/24 00:35:47;;;;;;;44.22;18.63;;;;;;;-1.79;nan;95493.22;6127297;23;20016;-80
2021/12/24 00:38:13;;;;;;;46.80;20.35;;;;;;;-1.95;nan;95457.91;6101247;23;20005;-80
2021/12/24 00:40:44;;;;;;;42.85;19.73;;;;;;;-1.86;nan;95457.75;6101655;23;20352;-80
2021/12/24 00:43:11;;;;;;;44.95;18.10;;;;;;;-1.80;nan;95451.78;6101342;23;20010;-79
2021/12/24 00:45:40;;;;;;;45.88;20.42;;;;;;;-1.80;nan;95439.59;6126124;23;19998;-81
2021/12/24 00:48:07;;;;;;;42.33;18.83;;;;;;;-1.73;nan;95469.06;6125576;23;20017;-80
2021/12/24 00:50:49;;;;;;;45.25;21.23;;;;;;;-1.59;nan;95459.53;6125801;23;20013;-80
2021/12/24 00:56:00;;;;;;;40.88;18.50;;;;;;;-2.15;nan;95376.41;6127276;23;20322;-80
2021/12/24 00:58:26;;;;;;;42.53;19.08;;;;;;;-2.31;nan;95355.09;6125711;23;20101;-80
2021/12/24 01:00:52;;;;;;;41.45;17.75;;;;;;;-1.57;nan;95437.53;6101687;23;20446;-81
2021/12/24 01:03:17;;;;;;;42.63;17.75;;;;;;;-2.10;nan;95365.44;6100576;23;20005;-80
2021/12/24 01:05:44;;;;;;;37.83;17.77;;;;;;;-2.16;nan;95350.63;6127013;23;19997;-80
2021/12/24 01:08:11;;;;;;;39.08;17.75;;;;;;;-2.08;nan;95381.66;6125173;23;20017;-81
2021/12/24 01:10:48;;;;;;;44.47;18.30;;;;;;;-1.60;nan;95432.72;6100996;23;20006;-80
2021/12/24 01:13:14;;;;;;;39.33;16.92;;;;;;;-2.40;nan;95302.50;6100765;23;20328;-80
2021/12/24 01:15:52;;;;;;;39.92;19.10;;;;;;;-2.19;nan;95341.41;6100434;23;20017;-80
2021/12/24 01:18:29;;;;;;;40.58;17.60;;;;;;;-2.28;nan;95311.34;6126504;23;20010;-80
2021/12/24 01:21:03;;;;;;;37.10;16.88;;;;;;;-1.50;nan;95440.19;6126886;23;20369;-80
2021/12/24 01:23:38;;;;;;;39.97;17.95;;;;;;;-2.03;nan;95353.28;6100701;23;20114;-79
2021/12/24 01:26:08;;;;;;;39.85;17.55;;;;;;;-2.51;nan;95256.28;6126276;23;19998;-79
2021/12/24 01:28:59;;;;;;;38.97;17.60;;;;;;;-1.72;nan;95391.84;6125509;23;20093;-80
2021/12/24 01:42:48;;;;;;;45.95;18.98;;;;;;;-1.62;nan;95405.31;6124435;23;20524;-79
2021/12/24 01:45:19;;;;;;;41.90;19.88;;;;;;;-1.52;nan;95410.13;6100229;23;20144;-79
2021/12/24 01:47:45;;;;;;;38.90;20.00;;;;;;;-2.03;nan;95333.28;6126667;23;20006;-80
2021/12/24 01:50:12;;;;;;;44.40;18.85;;;;;;;-1.85;nan;95368.38;6122273;23;20061;-79
2021/12/24 01:52:38;;;;;;;46.60;20.65;;;;;;;-1.53;nan;95417.16;5531811;23;10001040;-78
2021/12/24 01:55:06;;;;;;;49.88;20.98;;;;;;;-1.66;nan;95384.06;842036;23;10002062;-80
2021/12/24 01:57:32;;;;;;;49.17;21.95;;;;;;;-2.31;nan;95297.97;6123662;23;20248;-79
2021/12/24 01:59:59;;;;;;;47.75;21.73;;;;;;;-2.40;nan;95316.28;6123310;23;20033;-80
2021/12/24 02:02:25;;;;;;;50.83;21.92;;;;;;;-2.10;nan;95342.84;6123451;23;20021;-78
2021/12/24 02:04:50;;;;;;;42.88;19.70;;;;;;;-2.03;nan;95341.09;6125246;23;20009;-79
2021/12/24 02:07:16;;;;;;;44.88;18.73;;;;;;;-2.78;nan;95230.16;6099276;23;20005;-79
2021/12/24 02:09:41;;;;;;;48.03;21.23;;;;;;;-2.55;nan;95248.06;6125741;23;20010;-80
2021/12/24 02:12:09;;;;;;;41.92;19.92;;;;;;;-1.92;nan;95350.16;6124528;23;20016;-80
2021/12/24 02:14:37;;;;;;;42.05;18.88;;;;;;;-1.63;nan;95401.09;6125442;23;20030;-80
2021/12/24 02:17:18;;;;;;;45.40;18.20;;;;;;;-2.02;nan;95328.91;6097835;23;20084;-80
2021/12/24 02:30:42;;;;;;;51.83;20.17;;;;;;;-1.72;nan;95356.25;6124739;23;20056;-80
2021/12/24 02:33:08;;;;;;;56.60;21.30;;;;;;;-2.57;nan;95216.28;6124906;23;20621;-80
2021/12/24 02:35:34;;;;;;;62.70;23.45;;;;;;;-1.73;nan;95338.25;6098237;23;20025;-80
2021/12/24 02:38:00;;;;;;;65.57;25.05;;;;;;;-1.94;nan;95344.34;6098674;23;20426;-79
2021/12/24 02:40:27;;;;;;;74.75;26.67;;;;;;;-2.15;nan;95321.03;6122350;23;20006;-80
2021/12/24 02:42:55;;;;;;;64.90;26.25;;;;;;;-2.04;nan;95326.50;6124900;23;20082;-79
2021/12/24 02:45:26;;;;;;;76.75;30.13;;;;;;;-2.36;nan;95301.13;6123146;23;20009;-80
2021/12/24 02:55:33;;;;;;;77.55;27.15;;;;;;;-2.30;nan;95264.00;6127643;23;20029;-80
2021/12/24 02:58:00;;;;;;;57.03;24.48;;;;;;;-2.43;nan;95256.91;6101581;23;20009;-79
2021/12/24 03:00:27;;;;;;;67.43;25.25;;;;;;;-2.46;nan;95246.13;6125435;23;20081;-79
2021/12/24 03:02:54;;;;;;;61.50;24.02;;;;;;;-2.83;nan;95229.94;6126981;23;20010;-80
2021/12/24 03:05:22;;;;;;;58.10;23.42;;;;;;;-2.50;nan;95247.50;6127692;23;20005;-80
2021/12/24 03:07:48;;;;;;;57.70;24.90;;;;;;;-2.40;nan;95279.94;6124960;23;20014;-80
2021/12/24 03:10:16;;;;;;;48.83;22.67;;;;;;;-2.12;nan;95303.25;6102359;23;20131;-80
2021/12/24 03:12:44;;;;;;;51.30;22.55;;;;;;;-2.62;nan;95249.03;6125971;23;20045;-80
2021/12/24 03:15:11;;;;;;;53.35;23.13;;;;;;;-2.66;nan;95214.03;6127746;23;20010;-79
2021/12/24 03:17:36;;;;;;;62.30;24.27;;;;;;;-2.68;nan;95198.69;6102015;23;20006;-79
2021/12/24 03:20:08;;;;;;;48.00;21.50;;;;;;;-2.04;nan;95290.09;6101967;23;20686;-79
2021/12/24 03:25:06;;;;;;;50.30;23.38;;;;;;;-2.16;nan;95257.06;6127214;23;20400;-80
2021/12/24 03:27:31;;;;;;;55.65;22.98;;;;;;;-3.54;nan;95081.38;6126846;23;20085;-80
2021/12/24 03:29:58;;;;;;;49.60;20.77;;;;;;;-3.06;nan;95164.50;6102270;23;20010;-79
2021/12/24 03:32:24;;;;;;;55.63;23.35;;;;;;;-3.30;nan;95137.19;6125425;23;20010;-80
2021/12/24 03:34:49;;;;;;;54.53;22.38;;;;;;;-3.29;nan;95133.63;6127583;23;20010;-80
2021/12/24 03:37:15;;;;;;;51.53;22.73;;;;;;;-2.40;nan;95256.56;6101439;23;20010;-80
2021/12/24 03:39:41;;;;;;;54.20;21.30;;;;;;;-3.29;nan;95138.81;6124756;23;20010;-80
2021/12/24 03:42:06;;;;;;;51.33;22.60;;;;;;;-2.73;nan;95227.78;6124602;23;20012;-79
2021/12/24 03:44:38;;;;;;;48.20;20.75;;;;;;;-2.51;nan;95245.88;6123207;23;20354;-79
2021/12/24 03:47:13;;;;;;;56.83;21.55;;;;;;;-2.73;nan;95219.19;6103562;23;20082;-79
2021/12/24 03:50:06;;;;;;;47.53;21.65;;;;;;;-2.27;nan;95289.59;6098247;23;20009;-79
2021/12/24 03:54:57;;;;;;;57.45;22.40;;;;;;;-3.32;nan;95097.69;6124283;23;20021;-79
2021/12/24 03:57:29;;;;;;;48.38;21.83;;;;;;;-2.20;nan;95266.22;6097522;23;20009;-80
2021/12/24 03:59:57;;;;;;;53.65;22.05;;;;;;;-2.33;nan;95269.56;6121631;23;20013;-79
2021/12/24 04:02:23;;;;;;;54.47;23.63;;;;;;;-2.55;nan;95253.25;6123697;23;20010;-80
2021/12/24 04:04:48;;;;;;;53.85;23.27;;;;;;;-2.91;nan;95182.56;6097696;23;20017;-79
2021/12/24 04:07:15;;;;;;;63.58;26.92;;;;;;;-2.50;nan;95217.13;6097829;23;20064;-79
2021/12/24 04:09:55;;;;;;;88.05;34.95;;;;;;;-2.77;nan;95202.41;6124195;23;20021;-79
2021/12/24 04:12:21;;;;;;;99.82;38.42;;;;;;;-2.44;nan;95257.13;6097664;23;20446;-79
2021/12/24 04:14:46;;;;;;;102.25;38.45;;;;;;;-3.06;nan;95215.59;6097083;23;20010;-79
2021/12/24 04:17:12;;;;;;;90.57;38.10;;;;;;;-3.22;nan;95225.25;6123631;23;20121;-79
2021/12/24 04:25:06;;;;;;;101.38;38.50;;;;;;;-3.03;nan;95228.97;6123363;23;20069;-79
2021/12/24 04:27:31;;;;;;;94.45;37.33;;;;;;;-2.75;nan;95268.69;6123986;23;20017;-79
2021/12/24 04:30:09;;;;;;;98.18;36.70;;;;;;;-3.57;nan;95135.38;6121856;23;20092;-79
2021/12/24 04:32:53;;;;;;;86.43;36.30;;;;;;;-3.07;nan;95181.06;6123563;23;20300;-80
2021/12/24 04:35:45;;;;;;;95.38;39.03;;;;;;;-3.54;nan;95164.34;6097441;23;20018;-79
2021/12/24 04:51:32;;;;;;;101.90;39.67;;;;;;;-2.53;nan;95261.69;6123812;23;20067;-78
2021/12/24 05:04:34;;;;;;;90.07;36.58;;;;;;;-2.96;nan;95210.84;6123483;23;20104;-79
2021/12/24 05:07:16;;;;;;;94.60;34.67;;;;;;;-3.36;nan;95168.28;6097033;23;20010;-78
2021/12/24 05:09:42;;;;;;;99.47;37.75;;;;;;;-3.44;nan;95189.16;6123079;23;20345;-79
2021/12/24 05:12:08;;;;;;;91.88;34.90;;;;;;;-3.73;nan;95164.94;6096602;23;20005;-80
2021/12/24 05:14:33;;;;;;;91.53;36.67;;;;;;;-2.70;nan;95277.72;6122456;23;20112;-79
2021/12/24 05:17:22;;;;;;;80.82;34.95;;;;;;;-2.74;nan;95257.31;6122748;23;20125;-79
2021/12/24 05:22:33;;;;;;;85.00;32.70;;;;;;;-4.41;nan;95049.75;6122750;23;20040;-80
2021/12/24 05:25:00;;;;;;;73.00;31.75;;;;;;;-2.83;nan;95271.47;6097108;23;20013;-80
2021/12/24 05:27:26;;;;;;;74.72;32.15;;;;;;;-2.92;nan;95275.19;6122446;23;20224;-80
2021/12/24 05:29:53;;;;;;;84.93;34.13;;;;;;;-3.58;nan;95163.09;6120898;23;20056;-79
2021/12/24 05:32:18;;;;;;;76.03;31.77;;;;;;;-3.74;nan;95165.97;6096080;23;20074;-79
2021/12/24 05:34:44;;;;;;;78.43;32.60;;;;;;;-3.23;nan;95205.47;6122302;23;20033;-79
2021/12/24 05:37:10;;;;;;;70.40;31.17;;;;;;;-3.29;nan;95182.88;6096147;23;20033;-79
2021/12/24 05:39:35;;;;;;;90.20;33.67;;;;;;;-3.04;nan;95232.53;6121391;23;20009;-79
2021/12/24 05:42:03;;;;;;;80.57;32.92;;;;;;;-3.79;nan;95139.78;6122934;23;20015;-79
2021/12/24 05:44:29;;;;;;;71.65;32.60;;;;;;;-3.80;nan;95137.38;6120690;23;20358;-79
2021/12/24 05:46:54;;;;;;;72.88;30.42;;;;;;;-3.42;nan;95203.50;6122465;23;20033;-78
2021/12/24 05:49:20;;;;;;;91.75;32.42;;;;;;;-3.73;nan;95144.22;6096227;23;20014;-79
2021/12/24 05:51:45;;;;;;;72.45;31.77;;;;;;;-3.22;nan;95201.91;6096037;23;20006;-80
2021/12/24 05:54:12;;;;;;;78.95;32.08;;;;;;;-3.08;nan;95233.13;6120331;23;20303;-80
2021/12/24 05:56:37;;;;;;;81.10;34.00;;;;;;;-3.67;nan;95112.38;6122472;23;20077;-79
2021/12/24 05:59:04;;;;;;;77.40;32.53;;;;;;;-3.17;nan;95152.03;6123226;23;20010;-79
2021/12/24 06:01:29;;;;;;;79.93;31.92;;;;;;;-3.53;nan;95095.13;6122001;23;20414;-80
2021/12/24 06:03:55;;;;;;;78.18;31.58;;;;;;;-4.13;nan;95029.09;6096525;23;20020;-80
2021/12/24 06:06:22;;;;;;;79.22;32.72;;;;;;;-2.90;nan;95178.97;6123181;23;20524;-79
2021/12/24 06:08:47;;;;;;;73.65;32.25;;;;;;;-2.71;nan;95222.41;6122124;23;20026;-79
2021/12/24 06:11:13;;;;;;;72.88;31.80;;;;;;;-3.11;nan;95144.28;6097183;23;20026;-80
2021/12/24 06:13:38;;;;;;;71.20;31.50;;;;;;;-2.66;nan;95227.81;6097516;23;20002;-79
2021/12/24 06:16:06;;;;;;;77.93;30.85;;;;;;;-2.82;nan;95187.38;6126971;23;20240;-79
2021/12/24 06:18:32;;;;;;;78.68;33.05;;;;;;;-2.76;nan;95198.81;6121297;23;20016;-79
2021/12/24 06:21:03;;;;;;;83.78;32.83;;;;;;;-2.36;nan;95233.56;6119863;23;20026;-79
2021/12/24 06:23:30;;;;;;;86.15;32.17;;;;;;;-2.46;nan;95252.13;6096923;23;20093;-79
2021/12/24 06:25:57;;;;;;;74.13;31.33;;;;;;;-2.88;nan;95177.78;6121178;23;20006;-80
2021/12/24 06:28:23;;;;;;;84.80;33.05;;;;;;;-3.08;nan;95137.94;6096681;23;20002;-79
2021/12/24 06:30:49;;;;;;;85.13;34.47;;;;;;;-2.91;nan;95134.06;6094517;23;20098;-78
2021/12/24 06:33:15;;;;;;;88.75;35.45;;;;;;;-2.82;nan;95142.47;6119619;23;20014;-79
2021/12/24 06:35:41;;;;;;;80.22;35.08;;;;;;;-2.94;nan;95131.03;6120529;23;20016;-79
2021/12/24 06:38:07;;;;;;;86.63;36.03;;;;;;;-1.93;nan;95278.38;6122565;23;20013;-80
2021/12/24 06:40:33;;;;;;;106.97;41.95;;;;;;;-2.62;nan;95220.47;6122078;23;20415;-79
2021/12/24 06:42:59;;;;;;;111.88;48.15;;;;;;;-2.75;nan;95198.59;6123236;23;20006;-79
2021/12/24 06:45:25;;;;;;;121.78;48.38;;;;;;;-2.13;nan;95272.25;6124129;23;20342;-79
2021/12/24 06:47:53;;;;;;;124.95;50.65;;;;;;;-2.50;nan;95190.34;6123067;23;20021;-80
2021/12/24 06:50:18;;;;;;;133.00;52.72;;;;;;;-3.33;nan;95096.06;6124837;23;20021;-79
2021/12/24 06:52:44;;;;;;;125.05;51.83;;;;;;;-3.43;nan;95061.13;6122802;23;20006;-79
2021/12/24 06:55:10;;;;;;;138.93;55.05;;;;;;;-2.09;nan;95260.50;6124423;23;20116;-79
2021/12/24 06:57:37;;;;;;;130.60;53.00;;;;;;;-2.08;nan;95230.94;6125460;23;20490;-79
2021/12/24 07:00:05;;;;;;;131.63;52.72;;;;;;;-1.97;nan;95262.34;6124857;23;20061;-80
2021/12/24 07:02:30;;;;;;;94.13;40.92;;;;;;;-2.65;nan;95154.13;6123130;23;20005;-79
2021/12/24 07:04:56;;;;;;;107.13;41.55;;;;;;;-1.94;nan;95222.19;6125445;23;20009;-79
2021/12/24 07:07:21;;;;;;;99.43;39.80;;;;;;;-2.10;nan;95217.31;6122932;23;20017;-79
2021/12/24 07:09:47;;;;;;;110.30;45.33;;;;;;;-2.23;nan;95227.66;6098691;23;20088;-80
2021/12/24 07:12:13;;;;;;;105.00;42.90;;;;;;;-1.79;nan;95240.22;6098208;23;20010;-79
2021/12/24 07:14:40;;;;;;;97.85;42.53;;;;;;;-1.46;nan;95277.53;6098317;23;20088;-79
2021/12/24 07:17:07;;;;;;;82.88;37.47;;;;;;;-2.69;nan;95072.47;6125468;23;20088;-79
2021/12/24 07:19:32;;;;;;;87.72;35.10;;;;;;;-1.37;nan;95263.31;6122963;23;20215;-79
2021/12/24 07:21:58;;;;;;;79.13;33.67;;;;;;;-1.38;nan;95255.75;6124261;23;20104;-79
2021/12/24 07:24:23;;;;;;;85.95;37.47;;;;;;;-1.82;nan;95181.63;6122843;23;20020;-79
2021/12/24 07:26:49;;;;;;;77.75;36.60;;;;;;;-2.12;nan;95125.75;6122411;23;20331;-80
2021/12/24 07:29:14;;;;;;;80.40;34.72;;;;;;;-1.45;nan;95208.09;6125332;23;20434;-80
2021/12/24 07:31:40;;;;;;;76.95;34.05;;;;;;;-1.04;nan;95262.56;6099043;23;20021;-80
2021/12/24 07:34:05;;;;;;;69.55;32.70;;;;;;;-2.43;nan;95023.19;6100010;23;20010;-79
2021/12/24 07:36:31;;;;;;;90.63;36.10;;;;;;;-1.26;nan;95207.31;6126210;23;20009;-79
2021/12/24 07:38:57;;;;;;;81.40;33.00;;;;;;;-1.72;nan;95108.44;6125687;23;20069;-80
2021/12/24 07:41:24;;;;;;;77.80;32.85;;;;;;;-1.51;nan;95138.66;6098141;23;20425;-79
2021/12/24 07:43:50;;;;;;;69.57;30.90;;;;;;;-1.03;nan;95204.31;6125096;23;20040;-79
2021/12/24 07:46:15;;;;;;;73.88;31.05;;;;;;;-1.20;nan;95170.06;6124328;23;20006;-80
2021/12/24 07:48:49;;;;;;;64.78;28.85;;;;;;;-0.64;nan;95256.38;6098531;23;20017;-79
2021/12/24 07:54:02;;;;;;;68.70;28.55;;;;;;;-0.61;nan;95239.53;6125459;23;20021;-80
2021/12/24 07:56:29;;;;;;;76.80;31.58;;;;;;;-1.40;nan;95118.06;6122867;23;20472;-79
2021/12/24 07:58:55;;;;;;;111.55;46.70;;;;;;;-0.83;nan;95197.28;6125210;23;20378;-79
2021/12/24 08:01:27;;;;;;;102.15;42.75;;;;;;;-0.37;nan;95270.16;6125125;23;20013;-80
2021/12/24 08:03:54;;;;;;;70.22;30.73;;;;;;;-0.69;nan;95211.91;6122217;23;20028;-79
2021/12/24 08:06:23;;;;;;;92.70;34.00;;;;;;;-0.36;nan;95253.50;6122388;23;19998;-79
2021/12/24 08:08:48;;;;;;;73.55;32.75;;;;;;;-0.45;nan;95265.94;6122142;23;20010;-79
2021/12/24 08:11:14;;;;;;;66.93;29.90;;;;;;;-1.27;nan;95130.25;6124526;23;20039;-78
2021/12/24 08:13:40;;;;;;;60.50;25.73;;;;;;;-0.73;nan;95189.06;6122501;23;20347;-79
2021/12/24 08:16:06;;;;;;;63.78;26.55;;;;;;;-0.64;nan;95216.50;6122038;23;20025;-80
2021/12/24 08:18:32;;;;;;;51.97;23.63;;;;;;;-1.16;nan;95127.06;6122752;23;20085;-79
2021/12/24 08:20:57;;;;;;;54.40;22.48;;;;;;;-0.67;nan;95242.94;6097598;23;20113;-79
2021/12/24 08:23:23;;;;;;;50.15;21.30;;;;;;;-0.79;nan;95206.31;6124749;23;20409;-79
2021/12/24 08:25:48;;;;;;;58.28;21.58;;;;;;;-0.82;nan;95211.91;6124455;23;20033;-80
2021/12/24 08:28:14;;;;;;;62.03;22.88;;;;;;;-1.01;nan;95169.28;6098219;23;20071;-80
2021/12/24 08:30:39;;;;;;;53.35;21.50;;;;;;;-0.85;nan;95189.69;6122436;23;20044;-79
2021/12/24 08:33:06;;;;;;;55.08;21.83;;;;;;;-0.67;nan;95189.03;6096761;23;20021;-79
2021/12/24 08:35:31;;;;;;;45.42;21.83;;;;;;;-0.74;nan;95201.28;6124273;23;20016;-79
2021/12/24 08:37:57;;;;;;;49.05;22.48;;;;;;;-0.69;nan;95164.22;6100769;23;20009;-80
2021/12/24 08:40:23;;;;;;;54.40;23.75;;;;;;;-1.27;nan;95097.22;6127658;23;20101;-80
2021/12/24 08:42:48;;;;;;;42.65;20.92;;;;;;;-1.09;nan;95134.84;6124805;23;20394;-80
2021/12/24 08:45:14;;;;;;;55.50;22.65;;;;;;;-2.02;nan;94996.25;6100389;23;20097;-80
2021/12/24 08:47:40;;;;;;;55.05;22.40;;;;;;;-0.99;nan;95133.41;6127210;23;20088;-81
2021/12/24 08:50:09;;;;;;;56.63;22.63;;;;;;;-0.55;nan;95178.81;6100757;23;20009;-80
2021/12/24 08:52:34;;;;;;;47.20;21.33;;;;;;;-0.79;nan;95155.03;6127171;23;20010;-79
2021/12/24 08:55:00;;;;;;;52.28;22.48;;;;;;;-1.57;nan;95036.22;6097307;23;20022;-79
2021/12/24 08:57:25;;;;;;;54.25;22.35;;;;;;;-1.02;nan;95105.19;6097797;23;20404;-79
2021/12/24 08:59:51;;;;;;;51.30;20.35;;;;;;;-0.41;nan;95188.19;6097906;23;20006;-79
2021/12/24 09:02:17;;;;;;;47.97;20.42;;;;;;;-1.27;nan;95060.81;6100308;23;20013;-80
2021/12/24 09:04:43;;;;;;;49.45;19.83;;;;;;;-1.67;nan;94997.63;6124497;23;20541;-79
2021/12/24 09:07:08;;;;;;;44.28;19.92;;;;;;;-0.37;nan;95186.75;6124113;23;20006;-80
2021/12/24 09:09:34;;;;;;;42.03;20.17;;;;;;;-0.45;nan;95166.94;6123905;23;20006;-79
2021/12/24 09:11:59;;;;;;;43.50;19.90;;;;;;;-0.13;nan;95206.13;6124048;23;20080;-79
2021/12/24 09:14:26;;;;;;;47.75;19.40;;;;;;;-0.87;nan;95058.91;6124009;23;20002;-79
2021/12/24 09:16:53;;;;;;;53.88;22.67;;;;;;;-0.67;nan;95113.50;6096940;23;20022;-79
2021/12/24 09:19:23;;;;;;;41.63;20.58;;;;;;;-0.78;nan;95062.09;6098608;23;20025;-80
2021/12/24 09:21:49;;;;;;;55.00;22.57;;;;;;;0.11;nan;95189.00;6099156;23;20022;-80
2021/12/24 09:24:18;;;;;;;45.97;22.20;;;;;;;-0.38;nan;95093.97;6099545;23;20256;-79
2021/12/24 09:26:43;;;;;;;44.63;21.90;;;;;;;0.11;nan;95155.09;6127406;23;20096;-79
2021/12/24 09:29:11;;;;;;;42.92;21.17;;;;;;;-0.69;nan;95026.19;6100518;23;20005;-79
2021/12/24 09:31:37;;;;;;;53.10;23.40;;;;;;;-0.32;nan;95095.75;6124967;23;20017;-79
2021/12/24 09:34:03;;;;;;;51.30;23.92;;;;;;;-0.37;nan;95051.28;6099134;23;20079;-79
2021/12/24 09:36:29;;;;;;;49.15;21.98;;;;;;;-0.29;nan;95047.63;6100257;23;20028;-79
2021/12/24 09:38:57;;;;;;;47.13;23.15;;;;;;;0.60;nan;95155.19;6126409;23;20010;-80
2021/12/24 09:41:24;;;;;;;45.92;23.35;;;;;;;-0.04;nan;95071.94;6100123;23;20006;-79
2021/12/24 09:43:51;;;;;;;43.05;21.38;;;;;;;-0.35;nan;95010.19;6124789;23;20039;-80
2021/12/24 09:46:17;;;;;;;54.58;22.90;;;;;;;0.22;nan;95081.41;6100199;23;20029;-80
2021/12/24 09:48:42;;;;;;;51.80;22.75;;;;;;;0.29;nan;95074.34;6124248;23;20018;-80
2021/12/24 09:51:09;;;;;;;52.17;24.45;;;;;;;0.23;nan;95051.72;6098666;23;20041;-79
2021/12/24 09:53:37;;;;;;;59.15;24.20;;;;;;;0.89;nan;95147.72;6097749;23;20007;-78
2021/12/24 09:56:04;;;;;;;48.03;22.45;;;;;;;0.34;nan;95048.41;6122673;23;20784;-79
2021/12/24 09:58:30;;;;;;;44.08;22.30;;;;;;;0.68;nan;95100.13;6123997;23;20013;-79
2021/12/24 10:00:56;;;;;;;46.05;22.20;;;;;;;0.10;nan;94976.16;6099513;23;20010;-80
2021/12/24 10:03:48;;;;;;;50.95;23.17;;;;;;;0.62;nan;95038.31;6098667;23;20089;-80
2021/12/24 10:06:16;;;;;;;47.58;22.55;;;;;;;0.22;nan;94953.63;6119017;23;20061;-80
2021/12/24 10:08:41;;;;;;;41.08;21.33;;;;;;;1.02;nan;95070.06;6098704;23;20002;-80
2021/12/24 10:11:13;;;;;;;51.40;22.63;;;;;;;0.83;nan;95050.19;6124164;23;20029;-80
2021/12/24 10:13:44;;;;;;;54.25;23.20;;;;;;;1.45;nan;95108.41;6123470;23;20005;-79
2021/12/24 10:16:17;;;;;;;46.97;20.92;;;;;;;1.47;nan;95080.22;6124475;23;20157;-80
2021/12/24 10:18:52;;;;;;;41.85;20.42;;;;;;;1.26;nan;94966.53;6122085;23;20006;-79
2021/12/24 10:21:19;;;;;;;48.53;20.33;;;;;;;2.51;nan;95022.22;6125654;23;20026;-79
2021/12/24 10:23:52;;;;;;;43.33;19.23;;;;;;;3.71;nan;95093.19;6100143;23;20014;-78
2021/12/24 10:26:25;;;;;;;47.80;21.38;;;;;;;3.92;nan;95006.97;6100246;23;20012;-79
2021/12/24 10:29:08;;;;;;;42.42;19.40;;;;;;;4.95;nan;95038.03;6099982;23;20069;-79
2021/12/24 10:31:43;;;;;;;45.42;18.95;;;;;;;5.53;nan;95076.16;6125273;23;20013;-79
2021/12/24 10:34:24;;;;;;;37.58;18.38;;;;;;;6.01;nan;95064.91;6125338;23;20113;-79
2021/12/24 10:36:52;;;;;;;39.35;17.75;;;;;;;6.26;nan;95056.44;6124589;23;20065;-79
2021/12/24 10:39:19;;;;;;;37.83;18.23;;;;;;;5.38;nan;94901.34;6100916;23;20033;-80
2021/12/24 10:41:47;;;;;;;44.00;20.45;;;;;;;6.31;nan;94998.56;6100138;23;20020;-80
2021/12/24 10:44:18;;;;;;;34.17;18.33;;;;;;;6.63;nan;95023.06;6100876;23;20026;-80
2021/12/24 10:47:07;;;;;;;35.17;17.00;;;;;;;6.83;nan;95046.13;6126949;23;20029;-79
2021/12/24 10:54:53;;;;;;;36.97;18.80;;;;;;;7.29;nan;95028.75;6126790;23;20194;-80
2021/12/24 10:57:23;;;;;;;39.08;17.77;;;;;;;6.31;nan;94912.47;6125516;23;20017;-79
2021/12/24 10:59:51;;;;;;;37.47;18.63;;;;;;;7.37;nan;95025.63;6098816;23;20014;-80
2021/12/24 11:02:18;;;;;;;34.25;16.23;;;;;;;7.00;nan;94983.50;6127800;23;20001;-79
2021/12/24 11:04:44;;;;;;;35.53;17.63;;;;;;;7.14;nan;94995.19;6125674;23;20014;-79
2021/12/24 11:07:32;;;;;;;36.22;17.23;;;;;;;7.12;nan;95007.03;6100196;23;20010;-79
2021/12/24 11:10:12;;;;;;;39.53;17.20;;;;;;;7.12;nan;95002.56;6127542;23;20012;-80
2021/12/24 11:12:40;;;;;;;29.75;17.33;;;;;;;5.93;nan;94808.19;6126622;23;20426;-80
2021/12/24 11:15:23;;;;;;;39.17;17.02;;;;;;;6.70;nan;94931.41;6130267;23;20394;-79
2021/12/24 11:17:51;;;;;;;30.63;15.93;;;;;;;5.46;nan;94796.75;6099804;23;20033;-79
2021/12/24 11:20:17;;;;;;;29.05;15.23;;;;;;;6.95;nan;94986.09;6125340;23;20029;-80
2021/12/24 11:22:53;;;;;;;32.17;15.73;;;;;;;6.99;nan;94979.28;6124940;23;20030;-79
2021/12/24 11:25:20;;;;;;;36.08;17.70;;;;;;;6.37;nan;94850.84;6125086;23;20442;-80
2021/12/24 11:27:46;;;;;;;32.00;16.67;;;;;;;7.28;nan;94979.69;6123614;23;20014;-79
2021/12/24 11:30:12;;;;;;;37.58;18.38;;;;;;;6.37;nan;94877.19;6126514;23;20018;-80
2021/12/24 11:32:39;;;;;;;39.55;18.15;;;;;;;5.98;nan;94807.44;6123521;23;20002;-80
2021/12/24 11:35:05;;;;;;;48.40;19.40;;;;;;;6.45;nan;94850.38;6099987;23;20010;-79
2021/12/24 11:37:31;;;;;;;40.28;18.80;;;;;;;7.17;nan;94963.00;6123931;23;20097;-80
2021/12/24 11:39:58;;;;;;;47.45;19.13;;;;;;;7.00;nan;94911.53;6124983;23;20009;-79
2021/12/24 11:42:28;;;;;;;36.67;19.13;;;;;;;6.33;nan;94865.56;6125410;23;20002;-79
2021/12/24 11:44:54;;;;;;;36.88;17.02;;;;;;;6.52;nan;94913.38;6128492;23;20025;-80
2021/12/24 11:47:20;;;;;;;46.88;22.38;;;;;;;6.55;nan;94881.25;6099284;23;20009;-79
2021/12/24 11:49:46;;;;;;;49.75;22.95;;;;;;;5.90;nan;94800.78;6126609;23;20472;-79
2021/12/24 11:52:12;;;;;;;51.00;21.50;;;;;;;6.87;nan;94936.50;6125554;23;20006;-80
2021/12/24 11:54:37;;;;;;;51.75;22.45;;;;;;;6.50;nan;94887.28;6099575;23;20009;-80
2021/12/24 11:57:15;;;;;;;42.78;20.38;;;;;;;6.23;nan;94830.50;6125532;23;20017;-79
2021/12/24 11:59:41;;;;;;;51.58;20.13;;;;;;;6.52;nan;94869.38;6122586;23;20020;-79
2021/12/24 12:02:07;;;;;;;49.28;21.45;;;;;;;6.59;nan;94937.66;6124200;23;20033;-79
2021/12/24 12:04:33;;;;;;;39.50;19.55;;;;;;;5.70;nan;94790.91;6125623;23;20010;-79
2021/12/24 12:07:17;;;;;;;46.08;20.30;;;;;;;6.54;nan;94913.91;6075871;23;20020;-79
2021/12/24 12:09:46;;;;;;;49.83;21.27;;;;;;;6.75;nan;94926.16;6098129;23;20080;-79
2021/12/24 12:12:16;;;;;;;50.95;24.55;;;;;;;6.05;nan;94821.16;6124195;23;20010;-79
2021/12/24 12:14:42;;;;;;;47.72;22.13;;;;;;;7.04;nan;94974.03;6123646;23;20006;-79
2021/12/24 12:17:08;;;;;;;19.80;9.57;;;;;;;6.90;nan;94928.88;6122584;23;20016;-80
2021/12/24 12:25:07;;;;;;;11.43;3.28;;;;;;;6.97;nan;94852.97;6125020;23;20006;-80
2021/12/24 12:27:38;;;;;;;7.68;3.05;;;;;;;7.85;nan;94953.22;6122846;23;20010;-80
2021/12/24 12:30:25;;;;;;;10.48;2.72;;;;;;;7.97;nan;94937.13;6124263;23;20465;-80
2021/12/24 12:33:18;;;;;;;3.88;2.28;;;;;;;8.08;nan;94959.88;6123447;23;20014;-80
2021/12/24 12:35:50;;;;;;;11.35;3.08;;;;;;;7.29;nan;94810.63;6109027;23;20014;-79
2021/12/24 12:38:21;;;;;;;5.82;2.95;;;;;;;8.28;nan;94933.44;6122844;23;20394;-79
2021/12/24 12:40:47;;;;;;;4.28;2.90;;;;;;;8.38;nan;94932.69;6124378;23;20016;-80
2021/12/24 12:43:14;;;;;;;5.10;2.80;;;;;;;7.51;nan;94791.91;6099434;23;20014;-80
2021/12/24 12:45:41;;;;;;;4.38;2.50;;;;;;;8.47;nan;94934.50;6098324;23;20033;-80
2021/12/24 12:48:10;;;;;;;9.85;3.80;;;;;;;7.87;nan;94853.41;6098873;23;20449;-79
2021/12/24 12:50:49;;;;;;;6.93;3.13;;;;;;;8.03;nan;94862.13;6099214;23;20034;-80
2021/12/24 12:53:35;;;;;;;5.53;3.17;;;;;;;8.49;nan;94932.41;6099183;23;20010;-79
2021/12/24 12:56:31;;;;;;;6.38;2.95;;;;;;;8.03;nan;94870.84;6123513;23;20345;-80
2021/12/24 12:59:07;;;;;;;6.82;3.30;;;;;;;8.51;nan;94938.22;6099240;23;20034;-80
2021/12/24 13:01:48;;;;;;;9.57;3.15;;;;;;;8.59;nan;94918.41;6126506;23;20223;-80
2021/12/24 13:04:15;;;;;;;7.22;3.35;;;;;;;8.48;nan;94895.66;6126382;23;20009;-79
2021/12/24 13:06:43;;;;;;;6.82;3.17;;;;;;;8.60;nan;94919.97;6124071;23;20454;-80
2021/12/24 13:09:17;;;;;;;8.90;2.97;;;;;;;8.23;nan;94869.25;6125287;23;20010;-81
2021/12/24 13:11:46;;;;;;;4.38;2.97;;;;;;;8.01;nan;94827.28;6124719;23;20010;-80
2021/12/24 13:14:14;;;;;;;5.68;3.50;;;;;;;8.12;nan;94829.63;6125222;23;20006;-79
2021/12/24 13:16:48;;;;;;;10.05;3.45;;;;;;;8.03;nan;94809.31;6122504;23;20010;-80
2021/12/24 13:24:52;;;;;;;;;;;;;;;8.60;nan;94901.47;6125735;23;20033;-78